Sturgeon Bay, WI

10:09 PM CDT on April 24, 2017 (GMT -0500)
Door County Cherryland

Weather History for KSUE - November, 2013

Change the Weather History Date:

Sunday, November 24, 2013

  Actual Average Record
Temperature  
Mean Temperature 19 °F -  
Max Temperature 26 °F 38 °F 56 °F (1931)
Min Temperature 12 °F 25 °F -6 °F (1950)
Degree Days  
Heating Degree Days 46    
Moisture  
Dew Point 2 °F    
Average Humidity 50    
Maximum Humidity 62    
Minimum Humidity 39    
Precipitation  
Precipitation 0.00 in - - ()
Sea Level Pressure  
Sea Level Pressure 30.42 in    
Wind  
Wind Speed 13 mph (WSW)    
Max Wind Speed 24 mph    
Max Gust Speed 36 mph    
Visibility 10 miles    
Events      
Averages and records for this station are not official NWS values.
T = Trace of Precipitation, MM = Missing Value Source: NWS Daily Summary

Daily Weather History Graph

Daily Weather History Graph

Search for Another Location

Airport or City:

Trip Planner

Search our weather history database for the weather conditions in past years. The results will help you decide how hot, cold, wet, or windy it might be!

Date:

Astronomy

Nov. 24, 2013 Rise Set
Actual Time 6:59 AM CST 4:13 PM CST
Civil Twilight 6:26 AM CST 4:46 PM CST
Nautical Twilight 5:50 AM CST 5:22 PM CST
Astronomical Twilight 5:15 AM CST 5:57 PM CST
Moon 10:47 PM CST (11/24) 11:39 AM CST (11/24)
Length of Visible Light 10h 19m
Length of Day
9h 14m
Waning Gibbous, 60% of the Moon is Illuminated
Nov 24
Waning Gibbous
Nov 25
Last Quarter
Dec 2
New
Dec 9
First Quarter
Dec 17
Full

Hourly Weather History & Observations

Time (CST) Temp. Windchill Dew Point Humidity Pressure Visibility Wind Dir Wind Speed Gust Speed Precip Events Conditions
12:15 AM 14.0 °F -0.2 °F 3.2 °F 62% 30.58 in 10.0 mi WNW 12.7 mph 16.1 mph N/A   Partly Cloudy
12:35 AM 14.0 °F -1.4 °F 3.2 °F 62% 30.59 in 10.0 mi WNW 15.0 mph 20.7 mph N/A   Mostly Cloudy
12:55 AM 14.0 °F -2.0 °F 3.2 °F 62% 30.58 in 10.0 mi NW 16.1 mph - N/A   Overcast
1:15 AM 15.8 °F 2.7 °F 3.2 °F 58% 30.58 in 10.0 mi NW 11.5 mph - N/A   Overcast
1:35 AM 15.8 °F 2.1 °F 3.2 °F 58% 30.59 in 10.0 mi NW 12.7 mph 17.3 mph N/A   Overcast
1:55 AM 15.8 °F 1.4 °F 3.2 °F 58% 30.59 in 10.0 mi NW 13.8 mph - N/A   Overcast
2:15 AM 14.0 °F 0.5 °F 1.4 °F 57% 30.59 in 10.0 mi NW 11.5 mph 18.4 mph N/A   Scattered Clouds
2:35 AM 15.8 °F 0.3 °F 1.4 °F 53% 30.58 in 10.0 mi NW 16.1 mph - N/A   Scattered Clouds
2:55 AM 15.8 °F 2.1 °F 1.4 °F 53% 30.58 in 10.0 mi NNW 12.7 mph 18.4 mph N/A   Mostly Cloudy
3:15 AM 15.8 °F 0.3 °F -0.4 °F 49% 30.58 in 10.0 mi NW 16.1 mph 20.7 mph N/A   Mostly Cloudy
3:35 AM 15.8 °F 2.1 °F 1.4 °F 53% 30.58 in 10.0 mi NW 12.7 mph 19.6 mph N/A   Overcast
3:55 AM 15.8 °F 1.4 °F -0.4 °F 49% 30.58 in 10.0 mi NNW 13.8 mph 19.6 mph N/A   Overcast
4:15 AM 15.8 °F 0.9 °F -0.4 °F 49% 30.58 in 10.0 mi NW 15.0 mph 18.4 mph N/A   Overcast
4:35 AM 15.8 °F 2.7 °F 1.4 °F 53% 30.58 in 10.0 mi NNW 11.5 mph - N/A   Overcast
4:55 AM 15.8 °F 3.4 °F 1.4 °F 53% 30.58 in 10.0 mi NNW 10.4 mph 17.3 mph N/A   Overcast
5:15 AM 14.0 °F 1.2 °F 1.4 °F 57% 30.58 in 10.0 mi WNW 10.4 mph - N/A   Overcast
5:35 AM 14.0 °F 2.9 °F 1.4 °F 57% 30.58 in 10.0 mi NW 8.1 mph - N/A   Overcast
5:55 AM 14.0 °F -0.2 °F 1.4 °F 57% 30.58 in 10.0 mi NW 12.7 mph - N/A   Overcast
6:15 AM 14.0 °F 1.2 °F 1.4 °F 57% 30.58 in 10.0 mi NNW 10.4 mph - N/A   Overcast
6:35 AM 14.0 °F 0.5 °F 1.4 °F 57% 30.58 in 10.0 mi NW 11.5 mph - N/A   Mostly Cloudy
6:55 AM 12.2 °F 0.7 °F 1.4 °F 62% 30.57 in 10.0 mi NW 8.1 mph - N/A   Scattered Clouds
7:15 AM 12.2 °F 1.7 °F 1.4 °F 62% 30.58 in 10.0 mi NW 6.9 mph - N/A   Mostly Cloudy
7:35 AM 14.0 °F 3.9 °F 3.2 °F 62% 30.58 in 10.0 mi NW 6.9 mph - N/A   Mostly Cloudy
7:55 AM 15.8 °F 5.1 °F 3.2 °F 58% 30.58 in 10.0 mi WNW 8.1 mph - N/A   Partly Cloudy
8:15 AM 15.8 °F 6.1 °F 3.2 °F 58% 30.59 in 10.0 mi NW 6.9 mph - N/A   Scattered Clouds
8:35 AM 15.8 °F 6.1 °F 3.2 °F 58% 30.59 in 10.0 mi NW 6.9 mph - N/A   Partly Cloudy
8:55 AM 15.8 °F 5.1 °F 3.2 °F 58% 30.58 in 10.0 mi West 8.1 mph - N/A   Partly Cloudy
9:15 AM 15.8 °F 3.4 °F 5.0 °F 62% 30.58 in 10.0 mi NW 10.4 mph - N/A   Partly Cloudy
9:35 AM 17.6 °F 5.0 °F 3.2 °F 53% 30.58 in 10.0 mi West 11.5 mph - N/A   Clear
9:55 AM 17.6 °F 7.3 °F 3.2 °F 53% 30.57 in 10.0 mi West 8.1 mph - N/A   Partly Cloudy
10:15 AM 17.6 °F 5.7 °F 3.2 °F 53% 30.57 in 10.0 mi West 10.4 mph - N/A   Clear
10:35 AM 17.6 °F 4.3 °F 1.4 °F 49% 30.56 in 10.0 mi West 12.7 mph - N/A   Clear
10:55 AM 17.6 °F 5.0 °F 1.4 °F 49% 30.54 in 10.0 mi WSW 11.5 mph - N/A   Clear
11:15 AM 17.6 °F 5.7 °F 3.2 °F 53% 30.53 in 10.0 mi WSW 10.4 mph - N/A   Clear
11:35 AM 19.4 °F 6.6 °F 1.4 °F 46% 30.52 in 10.0 mi West 12.7 mph - N/A   Partly Cloudy
11:55 AM 19.4 °F 7.2 °F 1.4 °F 46% 30.51 in 10.0 mi SW 11.5 mph - N/A   Mostly Cloudy
12:15 PM 19.4 °F 7.2 °F 1.4 °F 46% 30.50 in 10.0 mi West 11.5 mph 17.3 mph N/A   Overcast
12:35 PM 19.4 °F 7.2 °F 1.4 °F 46% 30.48 in 10.0 mi SW 11.5 mph 17.3 mph N/A   Overcast
12:55 PM 19.4 °F 8.6 °F 1.4 °F 46% 30.47 in 10.0 mi WSW 9.2 mph - N/A   Overcast
1:15 PM 19.4 °F 8.6 °F 1.4 °F 46% 30.46 in 10.0 mi WSW 9.2 mph - N/A   Overcast
1:35 PM 19.4 °F 7.9 °F -0.4 °F 42% 30.45 in 10.0 mi WSW 10.4 mph - N/A   Overcast
1:55 PM 19.4 °F 8.6 °F -0.4 °F 42% 30.43 in 10.0 mi SW 9.2 mph - N/A   Overcast
2:15 PM 19.4 °F 7.9 °F -2.2 °F 39% 30.42 in 10.0 mi SW 10.4 mph 17.3 mph N/A   Overcast
2:35 PM 19.4 °F 6.0 °F -0.4 °F 42% 30.41 in 10.0 mi SSW 13.8 mph 17.3 mph N/A   Overcast
2:55 PM 19.4 °F 7.2 °F -2.2 °F 39% 30.40 in 10.0 mi SSW 11.5 mph - N/A   Overcast
3:15 PM 19.4 °F 7.2 °F -2.2 °F 39% 30.39 in 10.0 mi SSW 11.5 mph - N/A   Overcast
3:35 PM 19.4 °F 6.0 °F -0.4 °F 42% 30.38 in 10.0 mi SSW 13.8 mph 18.4 mph N/A   Overcast
3:55 PM 19.4 °F 6.6 °F -0.4 °F 42% 30.37 in 10.0 mi SSW 12.7 mph - N/A   Scattered Clouds
4:15 PM 19.4 °F 6.0 °F 1.4 °F 46% 30.35 in 10.0 mi SSW 13.8 mph - N/A   Clear
4:35 PM 21.2 °F 8.9 °F 1.4 °F 42% 30.35 in 10.0 mi SSW 12.7 mph 17.3 mph N/A   Clear
4:55 PM 21.2 °F 10.9 °F 1.4 °F 42% 30.33 in 10.0 mi South 9.2 mph - N/A   Clear
5:15 PM 21.2 °F 9.5 °F 1.4 °F 42% 30.31 in 10.0 mi South 11.5 mph 17.3 mph N/A   Clear
5:35 PM 21.2 °F 8.9 °F 3.2 °F 46% 30.29 in 10.0 mi South 12.7 mph - N/A   Clear
5:55 PM 21.2 °F 10.1 °F 3.2 °F 46% 30.28 in 10.0 mi South 10.4 mph - N/A   Clear
6:15 PM 21.2 °F 8.3 °F 3.2 °F 46% 30.26 in 10.0 mi South 13.8 mph 17.3 mph N/A   Clear
6:35 PM 21.2 °F 7.3 °F 3.2 °F 46% 30.24 in 10.0 mi South 16.1 mph 19.6 mph N/A   Clear
6:55 PM 21.2 °F 7.8 °F 3.2 °F 46% 30.23 in 10.0 mi South 15.0 mph 23.0 mph N/A   Clear
7:15 PM 21.2 °F 7.3 °F 3.2 °F 46% 30.21 in 10.0 mi SSW 16.1 mph 23.0 mph N/A   Clear
7:35 PM 21.2 °F 6.4 °F 3.2 °F 46% 30.18 in 10.0 mi SSW 18.4 mph 27.6 mph N/A   Clear
7:55 PM 21.2 °F 4.9 °F 3.2 °F 46% 30.16 in 10.0 mi SSW 23.0 mph 29.9 mph N/A   Clear
8:15 PM 23.0 °F 9.2 °F 3.2 °F 43% 30.16 in 10.0 mi SSW 17.3 mph 26.5 mph N/A   Clear
8:35 PM 23.0 °F 9.2 °F 3.2 °F 43% 30.15 in 10.0 mi SSW 17.3 mph 25.3 mph N/A   Clear
8:55 PM 23.0 °F 8.7 °F 3.2 °F 43% 30.13 in 10.0 mi SSW 18.4 mph 29.9 mph N/A   Clear
9:15 PM 23.0 °F 8.0 °F 3.2 °F 43% 30.12 in 10.0 mi SSW 20.7 mph 27.6 mph N/A   Clear
9:35 PM 24.8 °F 10.7 °F 3.2 °F 40% 30.13 in 10.0 mi SW 19.6 mph 25.3 mph N/A   Clear
9:55 PM 24.8 °F 11.1 °F 5.0 °F 43% 30.12 in 10.0 mi SW 18.4 mph 28.8 mph N/A   Clear
10:15 PM 24.8 °F 10.7 °F 5.0 °F 43% 30.11 in 10.0 mi SSW 19.6 mph 25.3 mph N/A   Clear
10:35 PM 24.8 °F 11.1 °F 5.0 °F 43% 30.11 in 10.0 mi SW 18.4 mph 29.9 mph N/A   Clear
10:55 PM 24.8 °F 10.7 °F 6.8 °F 46% 30.10 in 10.0 mi SW 19.6 mph 26.5 mph N/A   Clear
11:15 PM 24.8 °F 11.5 °F 6.8 °F 46% 30.09 in 10.0 mi SW 17.3 mph 32.2 mph N/A   Clear
11:35 PM 26.6 °F 11.7 °F 6.8 °F 43% 30.07 in 10.0 mi SW 24.2 mph 31.1 mph N/A   Clear
11:55 PM 26.6 °F 12.0 °F 6.8 °F 43% 30.06 in 10.0 mi SW 23.0 mph 35.7 mph N/A   Clear